• Join FlightAware (Why Join?)
  • Login
  • US Flag GB Flag 
00:00 EDT


 

Airport Tracker/Info


-or-


 

Live Flight TrackerFlight Track Log ✈ FLG3800 ✈ 24-May-2013 ✈ KDTW - KBTV

Flight Track Log - Related Links

Times and Time Zones

All times are in EDT time to prevent confusion due to time zone crossing. See the FLG3800 flight status page for this flight to view local times or setup timezone preferences in your user account.

Time Position Orientation Groundspeed Altitude Reporting Facility
EDT Latitude Longitude Course Direction KTS MPH feet Rate Location/Type
22:06 42.2314 -83.3314 82° East 157 181 1,200  Level Cleveland Center
22:07 42.2761 -83.2886 35° Northeast 207 238 3,400 1,920 Climbing Cleveland Center
22:08 42.3233 -83.2372 39° Northeast 225 259 5,500 2,220 Climbing Cleveland Center
22:09 42.2828 -82.9188 71° East  Level FlightAware Approximate
22:09 42.3358 -83.1392 80° East 231 266 8,100  Level Cleveland Center
22:10 42.3116 -82.7753 75° East  Level FlightAware Approximate
22:10 42.3175 -83.0319 103° East 241 277 10,400  Level Cleveland Center
22:11 42.3288 -82.6285 82° East  Level FlightAware Approximate
22:11 42.2992 -82.9103 101° East 289 333 11,700  Level Cleveland Center
22:12 42.3119 -82.7789 82° East 334 384 13,000 1,380 Climbing Cleveland Center
22:13 42.3356 -82.6419 77° East 350 403 14,500 1,500 Climbing Cleveland Center
22:14 42.3586 -82.5050 77° East 362 417 16,000 1,440 Climbing Cleveland Center
22:15 42.3631 -82.3592 88° East 374 430 17,500 1,260 Climbing Cleveland Center
22:16 42.3569 -82.2072 93° East 379 436 18,600 1,080 Climbing Cleveland Center
22:17 42.3525 -82.0722 93° East 392 451 19,700 960 Climbing Cleveland Center
22:18 42.3442 -81.9175 94° East 405 466 20,600 900 Climbing Cleveland Center
22:19 42.3375 -81.7433 93° East 412 474 21,500 900 Climbing Cleveland Center
22:20 42.3308 -81.5831 93° East 424 488 22,500 900 Climbing Cleveland Center
22:21 42.3236 -81.4228 93° East 424 488 23,400 900 Climbing Cleveland Center
22:22 42.3144 -81.2628 94° East 424 488 24,300 840 Climbing Cleveland Center
22:23 42.3069 -81.0997 94° East 429 494 25,100 720 Climbing Cleveland Center
22:24 42.2992 -80.9369 94° East 429 494 25,800 660 Climbing Cleveland Center
22:25 42.2892 -80.7683 95° East 434 499 26,500 600 Climbing Cleveland Center
22:26 42.2831 -80.6197 93° East 440 506 27,000 240 Climbing Cleveland Center
22:27 42.2747 -80.4514 94° East 445 512 27,000  Level Cleveland Center
22:28 42.3119 -80.2939 72° East 435 501 27,000  Level Cleveland Center
22:29 42.3489 -80.1364 72° East 429 494 27,000  Level Cleveland Center
22:30 42.4003 -79.9675 68° East 445 512 27,000  Level Cleveland Center
22:31 42.4514 -79.8206 65° Northeast 445 512 27,000  Level Cleveland Center
22:32 42.5025 -79.6847 63° Northeast 437 503 27,000  Level Cleveland Center
22:33 42.5533 -79.5375 65° Northeast 437 503 27,000  Level Cleveland Center
22:34 42.6042 -79.3844 66° East 437 503 27,000  Level Cleveland Center
22:35 42.6544 -79.2336 66° East 437 503 27,000  Level Cleveland Center
22:36 42.7067 -79.0800 65° Northeast 437 503 27,000  Level Cleveland Center
22:37 42.7547 -78.9319 66° East 437 503 27,000  Level Cleveland Center
22:38 42.8067 -78.7806 65° Northeast 432 497 27,000  Level Cleveland Center
22:39 42.8544 -78.6347 66° East 427 491 27,000  Level Cleveland Center
22:40 42.9017 -78.4831 67° East 422 486 27,000  Level Cleveland Center
22:41 42.9511 -78.3367 65° Northeast 422 486 27,000  Level Cleveland Center
22:42 42.9981 -78.1875 67° East 422 486 27,000  Level Cleveland Center
22:43 43.0450 -78.0378 67° East 422 486 27,000  Level Cleveland Center
22:44 43.0975 -77.8764 66° East 422 486 27,000  Level Cleveland Center
22:45 43.1439 -77.7236 67° East 422 486 27,000  Level Cleveland Center
22:47 43.2297 -77.4622 66° East 420 483 27,000  Level Boston Center
22:48 43.2761 -77.3092 67° East 420 483 27,000  Level Boston Center
22:49 43.3264 -77.1561 66° East 431 496 27,000  Level Boston Center
22:50 43.3722 -77.0025 68° East 431 496 27,000  Level Boston Center
22:51 43.4178 -76.8514 67° East 431 496 27,000 -120 Level Boston Center
22:52 43.4672 -76.6975 66° East 426 490 26,800 -840 Descending Boston Center
22:53 43.5169 -76.5406 66° East 419 482 25,400 -1,320 Descending Boston Center
22:54 43.5550 -76.4028 69° East 395 455 24,200 -1,200 Descending Boston Center
22:55 43.5972 -76.2678 67° East 381 438 23,000 -1,140 Descending Boston Center
22:56 43.6278 -76.1608 68° East 376 433 22,000 -1,260 Descending Boston Center
22:57 43.6861 -75.9661 67° East 376 433 20,300 -1,320 Descending Boston Center
22:58 43.7281 -75.8219 68° East 388 447 19,100 -1,200 Descending Boston Center
22:59 43.7717 -75.6778 67° East 393 452 18,000 -600 Descending Boston Center
23:00 43.8111 -75.5361 69° East 393 452 18,000  Level Boston Center
23:01 43.8522 -75.3969 68° East 393 452 18,000  Level Boston Center
23:02 43.8867 -75.2750 69° East 387 445 18,000  Level Boston Center
23:03 43.9253 -75.1442 68° East 373 429 18,000  Level Boston Center
23:04 43.9617 -75.0131 69° East 366 421 18,000  Level Boston Center
23:05 43.9978 -74.8847 69° East 361 415 18,000  Level Boston Center
23:06 44.0317 -74.7619 69° East 354 407 18,000  Level Boston Center
23:07 44.0675 -74.6361 68° East 348 400 18,000  Level Boston Center
23:08 44.1011 -74.5100 70° East 348 400 18,000 -120 Level Boston Center
23:09 44.1367 -74.3842 68° East 348 400 17,800 -660 Descending Boston Center
23:10 44.1719 -74.2550 69° East 348 400 16,700 -1,260 Descending Boston Center
23:11 44.2117 -74.1200 68° East 348 400 15,300 -1,320 Descending Boston Center
23:12 44.2425 -73.9961 71° East 343 395 14,100 -1,200 Descending Boston Center
23:13 44.2775 -73.8753 68° East 343 395 12,900 -1,080 Descending Boston Center
23:14 44.2869 -73.7711 83° East 336 387 12,000 -1,140 Descending Boston Center
23:15 44.2822 -73.6464 93° East 314 361 10,700 -1,260 Descending Boston Center
23:16 44.2519 -73.5414 112° Southeast 274 315 9,500 -1,320 Descending Boston Center
23:17 44.2025 -73.4622 131° Southeast 270 311 8,100 -840 Descending Boston Center
23:18 44.1658 -73.3750 120° Southeast 270 311 7,900 -600 Descending Boston Center
23:19 44.1353 -73.2875 116° Southeast 255 293 7,000 -480 Descending Boston Center
23:20 44.1108 -73.2092 113° Southeast 239 275 7,000 -180 Level Boston Center
23:21 44.1197 -73.1256 82° East 219 252 6,700 -720 Descending Boston Center
23:22 44.1367 -73.0475 73° East 219 252 5,600 -600 Descending Boston Center
23:23 44.1642 -72.9783 61° Northeast 212 244 5,500 -60 Descending Boston Center
23:24 44.1936 -72.9322 48° Northeast 184 212 5,500  Level Boston Center
23:25 44.2333 -72.8892 38° Northeast 177 204 5,500  Level Boston Center